KGUP

Gallup Municipal Airport

Gallup, New Mexico, USA
KGUP 221720Z 2218/2318 27009KT P6SM FEW100 FM222100 26009KT P6SM BKN100 FM230300 VRB05KT P6SM FEW100
Issued Valid From Valid To
Jul-22 @ 17:20 UTC
(3 hours ago)
Jul-22 @ 18:00 UTC
(2 hours ago)
Jul-23 @ 18:00 UTC
(in 22 hours)
Jul-22 @ 18:00 to Jul-22 @ 21:00
KGUP 221720Z 2218/2318 27009KT P6SM FEW100
Wind Visibility Clouds
270° at 9 knots Greater than 6 miles
  • Few at 10,000' AGL
From Jul-22 @ 21:00 to Jul-23 @ 03:00
FM222100 26009KT P6SM BKN100
Wind Visibility Clouds
260° at 9 knots Greater than 6 miles
  • Broken at 10,000' AGL
From Jul-23 @ 03:00 to Jul-23 @ 18:00
FM230300 VRB05KT P6SM FEW100
Wind Visibility Clouds
Variable at 5 knots Greater than 6 miles
  • Few at 10,000' AGL
KGUP 221720Z 2218/2318 27009KT P6SM FEW100 FM222100 26009KT P6SM BKN100 FM230300 VRB05KT P6SM FEW100
Issued Jul-22 @ 17:20 UTC
(3 hours ago)
Valid From Jul-22 @ 18:00 UTC
(2 hours ago)
Valid To Jul-23 @ 18:00 UTC
(in 22 hours)
Jul-22 @ 18:00 - Jul-22 @ 21:00
Wind Visibility
270° at 9 knots Greater than 6 miles
Clouds
  • Few at 10,000' AGL
From Jul-22 @ 21:00 - Jul-23 @ 03:00
Wind Visibility
260° at 9 knots Greater than 6 miles
Clouds
  • Broken at 10,000' AGL
From Jul-23 @ 03:00 - Jul-23 @ 18:00
Wind Visibility
Variable at 5 knots Greater than 6 miles
Clouds
  • Few at 10,000' AGL